Terminal Aerodrome Forecast
Issued by NWS Milwaukee/Sullivan, WI

Home | Current Version | Previous Version | Text Only | Print | Product List | Glossary On
Versions: 1 2 3 4 5 6 7 8 9 10 11 12 13 14 15 16 17 18 19 20 21 22 23 24 25 26 27 28 29 30 31 32 33 34 35 36 37 38 39 40 41 42 43 44 45 46 47 48 49 50
000
FTUS43 KMKX 241135
TAFMKE
TAF
KMKE 241135Z 2412/2518 30008KT P6SM OVC005
     FM241600 31005KT P6SM OVC015
     FM242000 04004KT P6SM OVC030
     FM250000 11004KT P6SM OVC025
     FM250200 11005KT 5SM -RA OVC020
     FM250400 11007KT 3SM -RASN OVC010
     FM251100 11008KT 3SM -RA OVC003=

USA.gov is the U.S. government's official web portal to all federal, state and local government web resources and services.